Terminal Aerodrome Forecast
Issued by NWS

Current Version | Previous Version | Text Only | Print | Product List | Glossary On
Versions: 1 2 3 4 5 6 7 8 9 10 11 12 13 14 15 16 17 18 19 20 21 22 23
142
FTUS43 KAPX 122203 AAC
TAFTVC
TAF AMD
KTVC 122203Z 1222/1318 33017G27KT 1 1/2SM -SHSN BLSN VV011
      TEMPO 1222/1223 3/4SM -SHSN BLSN OVC009
     FM122300 33014G23KT 2SM -SHSN BLSN OVC025
     FM130500 31011KT 2SM -SHSN OVC025=

USA.gov is the U.S. government's official web portal to all federal, state and local government web resources and services.